Time;durP1;ratioP1;P1;durP2;ratioP2;P2;SDS_P1;SDS_P2;PMS_P1;PMS_P2;Temp;Humidity;BMP_temperature;BMP_pressure;BME280_temperature;BME280_humidity;BME280_pressure;Samples;Min_cycle;Max_cycle;Signal;HPM_P1;HPM_P2
2023/01/16 00:01:36;;;;;;;;;;;;;;;;;;6267266;23;19968;-83
2023/01/16 00:04:02;;;;;;;;;;;;;;;;;;6241292;23;19946;-83
2023/01/16 00:06:27;;;;;;;;;;;;;;;;;;6267910;23;19938;-81
2023/01/16 00:08:53;;;;;;;;;;;;;;;;;;6267214;23;19939;-83
2023/01/16 00:11:19;;;;;;;;;;;;;;;;;;6269024;23;19911;-83
2023/01/16 00:13:44;;;;;;;;;;;;;;;;;;6217593;23;19912;-83
2023/01/16 00:16:10;;;;;;;;;;;;;;;;;;6269413;23;19913;-83
2023/01/16 00:18:36;;;;;;;;;;;;;;;;;;6273893;22;19958;-88
2023/01/16 00:21:01;;;;;;;;;;;;;;;;;;6258425;22;19908;-83
2023/01/16 00:23:27;;;;;;;;;;;;;;;;;;6270109;23;19961;-83
2023/01/16 00:25:53;;;;;;;;;;;;;;;;;;6246488;23;19914;-82
2023/01/16 00:28:18;;;;;;;;;;;;;;;;;;6269964;22;19939;-84
2023/01/16 00:30:44;;;;;;;;;;;;;;;;;;6248084;23;19911;-84
2023/01/16 00:33:10;;;;;;;;;;;;;;;;;;6271899;23;19939;-81
2023/01/16 00:35:36;;;;;;;;;;;;;;;;;;6274032;22;19935;-85
2023/01/16 00:38:01;;;;;;;;;;;;;;;;;;6273577;22;19973;-81
2023/01/16 00:40:27;;;;;;;;;;;;;;;;;;6271384;23;20463;-83
2023/01/16 00:42:52;;;;;;;;;;;;;;;;;;6270264;23;19959;-84
2023/01/16 00:45:18;;;;;;;;;;;;;;;;;;6269745;23;19962;-85
2023/01/16 00:47:44;;;;;;;;;;;;;;;;;;6271388;23;19915;-85
2023/01/16 00:50:10;;;;;;;;;;;;;;;;;;6272922;23;19951;-84
2023/01/16 00:52:36;;;;;;;;;;;;;;;;;;6272357;23;19912;-83
2023/01/16 00:55:01;;;;;;;;;;;;;;;;;;6270833;23;19959;-84
2023/01/16 00:57:28;;;;;;;;;;;;;;;;;;6271637;23;19917;-81
2023/01/16 00:59:54;;;;;;;;;;;;;;;;;;6271061;23;19923;-83
2023/01/16 01:02:20;;;;;;;;;;;;;;;;;;6270993;23;19948;-84
2023/01/16 01:07:27;;;;;;;;;;;;;;;;;;6252083;22;19928;-83
2023/01/16 01:09:53;;;;;;;;;;;;;;;;;;6243126;23;19919;-84
2023/01/16 01:12:18;;;;;;;;;;;;;;;;;;6266137;23;19982;-83
2023/01/16 01:14:44;;;;;;;;;;;;;;;;;;6265852;23;19935;-84
2023/01/16 01:17:10;;;;;;;;;;;;;;;;;;6245562;23;20372;-84
2023/01/16 01:19:35;;;;;;;;;;;;;;;;;;6273222;22;19935;-85
2023/01/16 01:22:01;;;;;;;;;;;;;;;;;;6271361;23;19916;-84
2023/01/16 01:24:27;;;;;;;;;;;;;;;;;;6244133;23;19911;-83
2023/01/16 01:26:53;;;;;;;;;;;;;;;;;;6270619;23;19891;-83
2023/01/16 01:29:18;;;;;;;;;;;;;;;;;;6210355;22;20197;-85
2023/01/16 01:31:44;;;;;;;;;;;;;;;;;;6188867;23;19908;-87
2023/01/16 01:36:51;;;;;;;;;;;;;;;;;;6228995;22;19904;-82
2023/01/16 01:39:17;;;;;;;;;;;;;;;;;;6220669;23;19947;-84
2023/01/16 01:41:43;;;;;;;;;;;;;;;;;;6272487;23;19899;-84
2023/01/16 01:44:08;;;;;;;;;;;;;;;;;;6272068;22;19955;-82
2023/01/16 01:46:34;;;;;;;;;;;;;;;;;;6246300;23;19896;-84
2023/01/16 01:49:00;;;;;;;;;;;;;;;;;;6272407;22;19916;-85
2023/01/16 01:54:06;;;;;;;;;;;;;;;;;;6241013;22;20026;-83
2023/01/16 01:56:31;;;;;;;;;;;;;;;;;;6215117;23;19900;-83
2023/01/16 01:58:57;;;;;;;;;;;;;;;;;;6240811;23;19955;-82
2023/01/16 02:01:23;;;;;;;;;;;;;;;;;;6214626;23;19950;-81
2023/01/16 02:03:49;;;;;;;;;;;;;;;;;;6214672;23;19907;-81
2023/01/16 02:06:15;;;;;;;;;;;;;;;;;;6237758;23;19927;-83
2023/01/16 02:08:44;;;;;;;;;;;;;;;;;;6236656;23;19896;-86
2023/01/16 02:11:25;;;;;;;;;;;;;;;;;;6238944;23;19936;-87
2023/01/16 02:13:51;;;;;;;;;;;;;;;;;;6238634;23;19943;-86
2023/01/16 02:19:16;;;;;;;;;;;;;;;;;;6242483;23;19920;-88
2023/01/16 02:21:42;;;;;;;;;;;;;;;;;;6217100;23;19915;-88
2023/01/16 02:24:07;;;;;;;;;;;;;;;;;;6213302;23;19908;-88
2023/01/16 02:26:33;;;;;;;;;;;;;;;;;;6240209;23;19904;-89
2023/01/16 02:28:59;;;;;;;;;;;;;;;;;;6211742;23;19916;-88
2023/01/16 02:31:24;;;;;;;;;;;;;;;;;;6240411;23;19912;-87
2023/01/16 02:33:50;;;;;;;;;;;;;;;;;;6241655;22;19960;-85
2023/01/16 02:36:16;;;;;;;;;;;;;;;;;;6211957;23;19933;-83
2023/01/16 02:38:42;;;;;;;;;;;;;;;;;;6237597;23;19919;-84
2023/01/16 02:41:07;;;;;;;;;;;;;;;;;;6235951;23;19916;-82
2023/01/16 02:43:33;;;;;;;;;;;;;;;;;;6234510;23;19950;-83
2023/01/16 02:45:59;;;;;;;;;;;;;;;;;;6235260;23;19912;-81
2023/01/16 02:48:25;;;;;;;;;;;;;;;;;;6233624;23;19919;-83
2023/01/16 02:50:50;;;;;;;;;;;;;;;;;;6231999;23;19918;-83
2023/01/16 02:53:16;;;;;;;;;;;;;;;;;;6235537;23;19920;-83
2023/01/16 02:55:42;;;;;;;;;;;;;;;;;;6209388;23;19919;-83
2023/01/16 02:58:08;;;;;;;;;;;;;;;;;;6184062;23;19916;-82
2023/01/16 03:00:34;;;;;;;;;;;;;;;;;;6208313;23;19916;-85
2023/01/16 03:03:00;;;;;;;;;;;;;;;;;;6232807;23;19919;-82
2023/01/16 03:05:26;;;;;;;;;;;;;;;;;;6202737;23;19934;-81
2023/01/16 03:07:51;;;;;;;;;;;;;;;;;;6217341;23;20234;-81
2023/01/16 03:10:17;;;;;;;;;;;;;;;;;;6217328;23;20141;-81
2023/01/16 03:12:43;;;;;;;;;;;;;;;;;;6191992;23;19912;-82
2023/01/16 03:15:08;;;;;;;;;;;;;;;;;;6228769;23;19912;-82
2023/01/16 03:17:34;;;;;;;;;;;;;;;;;;6199890;23;19912;-82
2023/01/16 03:20:00;;;;;;;;;;;;;;;;;;6227583;23;19931;-85
2023/01/16 03:22:25;;;;;;;;;;;;;;;;;;6178299;23;19907;-83
2023/01/16 03:24:51;;;;;;;;;;;;;;;;;;6202749;23;20443;-81
2023/01/16 03:27:17;;;;;;;;;;;;;;;;;;6205113;23;19942;-83
2023/01/16 03:29:42;;;;;;;;;;;;;;;;;;6180722;23;19972;-83
2023/01/16 03:32:08;;;;;;;;;;;;;;;;;;6228276;23;19923;-82
2023/01/16 03:34:34;;;;;;;;;;;;;;;;;;6229675;23;19912;-82
2023/01/16 03:36:59;;;;;;;;;;;;;;;;;;6227753;23;19972;-83
2023/01/16 03:39:25;;;;;;;;;;;;;;;;;;6236904;22;19930;-84
2023/01/16 03:41:51;;;;;;;;;;;;;;;;;;6249782;22;19953;-84
2023/01/16 03:44:17;;;;;;;;;;;;;;;;;;6244266;23;19912;-83
2023/01/16 03:46:42;;;;;;;;;;;;;;;;;;6269854;23;19895;-83
2023/01/16 03:49:08;;;;;;;;;;;;;;;;;;6271578;23;19907;-83
2023/01/16 03:51:34;;;;;;;;;;;;;;;;;;6243867;23;19934;-84
2023/01/16 03:53:59;;;;;;;;;;;;;;;;;;6266981;23;19915;-83
2023/01/16 03:56:25;;;;;;;;;;;;;;;;;;6266463;23;19946;-82
2023/01/16 03:58:51;;;;;;;;;;;;;;;;;;6268008;23;19919;-82
2023/01/16 04:01:17;;;;;;;;;;;;;;;;;;6242925;23;19912;-82
2023/01/16 04:03:43;;;;;;;;;;;;;;;;;;6258783;22;19938;-84
2023/01/16 04:06:09;;;;;;;;;;;;;;;;;;6260488;22;19908;-82
2023/01/16 04:08:35;;;;;;;;;;;;;;;;;;6202259;22;19918;-83
2023/01/16 04:11:01;;;;;;;;;;;;;;;;;;6217726;23;20282;-82
2023/01/16 04:13:27;;;;;;;;;;;;;;;;;;6234881;23;19918;-81
2023/01/16 04:15:52;;;;;;;;;;;;;;;;;;6257482;23;19956;-82
2023/01/16 04:18:18;;;;;;;;;;;;;;;;;;6256786;23;19911;-82
2023/01/16 04:20:43;;;;;;;;;;;;;;;;;;6265128;23;19975;-82
2023/01/16 04:23:09;;;;;;;;;;;;;;;;;;6240993;23;19911;-81
2023/01/16 04:28:10;;;;;;;;;;;;;;;;;;6240210;22;19923;-83
2023/01/16 04:30:35;;;;;;;;;;;;;;;;;;6235872;23;19928;-83
2023/01/16 04:33:01;;;;;;;;;;;;;;;;;;6207640;23;19912;-83
2023/01/16 04:35:27;;;;;;;;;;;;;;;;;;6239193;23;19974;-83
2023/01/16 04:37:53;;;;;;;;;;;;;;;;;;6236081;23;19920;-83
2023/01/16 04:40:18;;;;;;;;;;;;;;;;;;6208126;23;19932;-82
2023/01/16 04:42:44;;;;;;;;;;;;;;;;;;6230100;23;19963;-83
2023/01/16 04:45:10;;;;;;;;;;;;;;;;;;6235687;23;19912;-81
2023/01/16 04:47:36;;;;;;;;;;;;;;;;;;6239643;23;19943;-83
2023/01/16 04:50:01;;;;;;;;;;;;;;;;;;6213682;23;19907;-84
2023/01/16 04:52:28;;;;;;;;;;;;;;;;;;6242226;22;19916;-84
2023/01/16 04:54:53;;;;;;;;;;;;;;;;;;6241213;23;19920;-82
2023/01/16 04:57:19;;;;;;;;;;;;;;;;;;6233820;23;19972;-82
2023/01/16 04:59:44;;;;;;;;;;;;;;;;;;6233851;23;19919;-82
2023/01/16 05:02:10;;;;;;;;;;;;;;;;;;6213680;23;19915;-83
2023/01/16 05:04:36;;;;;;;;;;;;;;;;;;6214757;23;19912;-82
2023/01/16 05:07:02;;;;;;;;;;;;;;;;;;6213502;23;19959;-84
2023/01/16 05:09:27;;;;;;;;;;;;;;;;;;6238573;23;19919;-83
2023/01/16 05:11:53;;;;;;;;;;;;;;;;;;6236430;23;19912;-82
2023/01/16 05:14:18;;;;;;;;;;;;;;;;;;6186558;23;19907;-82
2023/01/16 05:16:44;;;;;;;;;;;;;;;;;;6238169;23;19955;-83
2023/01/16 05:19:10;;;;;;;;;;;;;;;;;;6212468;23;19947;-82
2023/01/16 05:21:35;;;;;;;;;;;;;;;;;;6238940;23;19900;-83
2023/01/16 05:24:01;;;;;;;;;;;;;;;;;;6209261;23;19896;-82
2023/01/16 05:26:27;;;;;;;;;;;;;;;;;;6234129;23;19920;-82
2023/01/16 05:28:52;;;;;;;;;;;;;;;;;;6209481;23;19892;-83
2023/01/16 05:31:18;;;;;;;;;;;;;;;;;;6239427;23;19919;-82
2023/01/16 05:33:44;;;;;;;;;;;;;;;;;;6238634;23;19916;-83
2023/01/16 05:36:09;;;;;;;;;;;;;;;;;;6240968;23;19914;-81
2023/01/16 05:38:35;;;;;;;;;;;;;;;;;;6215322;23;19924;-83
2023/01/16 05:41:01;;;;;;;;;;;;;;;;;;6241321;23;19904;-82
2023/01/16 05:43:27;;;;;;;;;;;;;;;;;;6239543;22;19916;-82
2023/01/16 05:45:52;;;;;;;;;;;;;;;;;;6174999;23;19962;-77
2023/01/16 05:51:11;;;;;;;;;;;;;;;;;;6199925;22;19919;-85
2023/01/16 05:53:36;;;;;;;;;;;;;;;;;;6188520;23;21337;-83
2023/01/16 05:56:03;;;;;;;;;;;;;;;;;;6235594;23;19922;-83
2023/01/16 05:58:29;;;;;;;;;;;;;;;;;;6241186;23;19920;-85
2023/01/16 06:00:55;;;;;;;;;;;;;;;;;;6244879;23;19955;-84
2023/01/16 06:03:21;;;;;;;;;;;;;;;;;;6237892;23;19919;-84
2023/01/16 06:05:47;;;;;;;;;;;;;;;;;;6243995;23;19915;-83
2023/01/16 06:08:12;;;;;;;;;;;;;;;;;;6271633;22;19938;-82
2023/01/16 06:10:38;;;;;;;;;;;;;;;;;;6272748;22;19899;-83
2023/01/16 06:13:04;;;;;;;;;;;;;;;;;;6245398;23;19909;-84
2023/01/16 06:15:29;;;;;;;;;;;;;;;;;;6220895;22;19900;-83
2023/01/16 06:17:55;;;;;;;;;;;;;;;;;;6246009;23;19899;-83
2023/01/16 06:20:21;;;;;;;;;;;;;;;;;;6272018;23;19908;-84
2023/01/16 06:22:47;;;;;;;;;;;;;;;;;;6236265;23;19967;-83
2023/01/16 06:30:50;;;;;;;;;;;;;;;;;;6209273;22;19903;-86
2023/01/16 06:33:16;;;;;;;;;;;;;;;;;;6211664;22;19959;-78
2023/01/16 06:38:30;;;;;;;;;;;;;;;;;;6262914;22;19908;-84
2023/01/16 06:40:56;;;;;;;;;;;;;;;;;;6246812;22;19907;-86
2023/01/16 06:43:21;;;;;;;;;;;;;;;;;;6244984;23;19916;-84
2023/01/16 06:48:43;;;;;;;;;;;;;;;;;;6220635;23;19963;-84
2023/01/16 06:51:09;;;;;;;;;;;;;;;;;;6238390;23;19896;-78
2023/01/16 06:53:35;;;;;;;;;;;;;;;;;;6243277;23;19904;-85
2023/01/16 06:56:01;;;;;;;;;;;;;;;;;;6207170;22;19904;-89
2023/01/16 06:58:26;;;;;;;;;;;;;;;;;;6233808;23;19924;-86
2023/01/16 07:03:34;;;;;;;;;;;;;;;;;;6231305;22;19903;-86
2023/01/16 07:06:09;;;;;;;;;;;;;;;;;;6220849;23;19930;-85
2023/01/16 07:11:16;;;;;;;;;;;;;;;;;;6242923;22;19904;-83
2023/01/16 07:24:39;;;;;;;;;;;;;;;;;;6200769;22;19916;-85
2023/01/16 07:27:05;;;;;;;;;;;;;;;;;;6250530;22;19903;-85
2023/01/16 07:29:30;;;;;;;;;;;;;;;;;;6219590;23;19918;-82
2023/01/16 07:31:56;;;;;;;;;;;;;;;;;;6258183;22;19907;-85
2023/01/16 07:34:23;;;;;;;;;;;;;;;;;;6203802;22;19941;-83
2023/01/16 07:36:49;;;;;;;;;;;;;;;;;;6205833;22;19923;-83
2023/01/16 07:39:15;;;;;;;;;;;;;;;;;;6216911;23;20319;-83
2023/01/16 07:46:56;;;;;;;;;;;;;;;;;;6210330;22;19924;-83
2023/01/16 07:49:22;;;;;;;;;;;;;;;;;;6245505;23;19920;-83
2023/01/16 07:51:50;;;;;;;;;;;;;;;;;;6272844;22;19915;-82
2023/01/16 07:54:16;;;;;;;;;;;;;;;;;;6220998;22;19999;-82
2023/01/16 07:56:41;;;;;;;;;;;;;;;;;;6274015;22;19908;-84
2023/01/16 07:59:07;;;;;;;;;;;;;;;;;;6247064;22;19904;-80
2023/01/16 08:01:33;;;;;;;;;;;;;;;;;;6246838;23;20271;-82
2023/01/16 08:03:58;;;;;;;;;;;;;;;;;;6247216;22;19915;-84
2023/01/16 08:06:24;;;;;;;;;;;;;;;;;;6272374;22;19900;-81
2023/01/16 08:08:50;;;;;;;;;;;;;;;;;;6270744;23;19896;-83
2023/01/16 08:14:00;;;;;;;;;;;;;;;;;;6264900;23;19911;-83
2023/01/16 08:16:26;;;;;;;;;;;;;;;;;;6211470;23;20010;-84
2023/01/16 08:18:51;;;;;;;;;;;;;;;;;;6237787;23;19923;-81
2023/01/16 08:21:17;;;;;;;;;;;;;;;;;;6226502;23;20307;-81
2023/01/16 08:23:42;;;;;;;;;;;;;;;;;;6200214;23;19938;-79
2023/01/16 08:26:08;;;;;;;;;;;;;;;;;;6217101;23;19915;-79
2023/01/16 08:28:33;;;;;;;;;;;;;;;;;;6219413;23;19911;-84
2023/01/16 08:30:59;;;;;;;;;;;;;;;;;;6267638;23;19911;-84
2023/01/16 08:33:25;;;;;;;;;;;;;;;;;;6240957;23;19919;-82
2023/01/16 08:35:50;;;;;;;;;;;;;;;;;;6235695;23;19911;-81
2023/01/16 08:38:16;;;;;;;;;;;;;;;;;;6264760;23;19911;-82
2023/01/16 08:40:42;;;;;;;;;;;;;;;;;;6267776;22;19927;-80
2023/01/16 08:51:22;;;;;;;;;;;;;;;;;;6245221;22;19971;-86
2023/01/16 08:53:47;;;;;;;;;;;;;;;;;;6235943;23;20002;-82
2023/01/16 08:56:13;;;;;;;;;;;;;;;;;;6260985;23;19935;-82
2023/01/16 08:58:39;;;;;;;;;;;;;;;;;;6262387;23;19920;-84
2023/01/16 09:01:04;;;;;;;;;;;;;;;;;;6239924;23;19898;-82
2023/01/16 09:03:30;;;;;;;;;;;;;;;;;;6266527;23;19903;-82
2023/01/16 09:05:55;;;;;;;;;;;;;;;;;;6262481;23;19946;-84
2023/01/16 09:08:21;;;;;;;;;;;;;;;;;;6260158;23;20032;-83
2023/01/16 09:13:48;;;;;;;;;;;;;;;;;;6267142;23;19918;-81
2023/01/16 09:13:51;;;;;;;;;;;;;;;;;;6262617;23;19911;-83
2023/01/16 09:16:16;;;;;;;;;;;;;;;;;;6259015;23;19942;-83
2023/01/16 09:18:42;;;;;;;;;;;;;;;;;;6234185;23;19920;-81
2023/01/16 09:21:08;;;;;;;;;;;;;;;;;;6227645;23;19911;-81
2023/01/16 09:23:33;;;;;;;;;;;;;;;;;;6231758;23;19919;-83
2023/01/16 09:25:59;;;;;;;;;;;;;;;;;;6255717;23;19918;-81
2023/01/16 09:28:25;;;;;;;;;;;;;;;;;;6229124;23;19919;-82
2023/01/16 09:30:50;;;;;;;;;;;;;;;;;;6258491;23;19911;-81
2023/01/16 09:33:16;;;;;;;;;;;;;;;;;;6260955;23;20260;-82
2023/01/16 09:35:42;;;;;;;;;;;;;;;;;;6210670;23;20000;-82
2023/01/16 09:38:07;;;;;;;;;;;;;;;;;;6259851;23;19911;-84
2023/01/16 09:40:33;;;;;;;;;;;;;;;;;;6230181;23;20010;-81
2023/01/16 09:45:43;;;;;;;;;;;;;;;;;;6260617;23;19892;-85
2023/01/16 09:48:08;;;;;;;;;;;;;;;;;;6265740;22;19907;-83
2023/01/16 10:01:30;;;;;;;;;;;;;;;;;;6238107;23;19924;-80
2023/01/16 10:03:56;;;;;;;;;;;;;;;;;;6236407;23;19912;-80
2023/01/16 10:06:22;;;;;;;;;;;;;;;;;;6183250;23;19912;-81
2023/01/16 10:08:49;;;;;;;;;;;;;;;;;;6228750;22;19924;-82
2023/01/16 10:12:09;;;;;;;;;;;;;;;;;;6238869;23;19970;-85
2023/01/16 10:14:35;;;;;;;;;;;;;;;;;;6226573;23;19896;-83
2023/01/16 10:17:00;;;;;;;;;;;;;;;;;;6221139;23;20002;-83
2023/01/16 10:19:26;;;;;;;;;;;;;;;;;;6225561;23;19919;-84
2023/01/16 10:21:51;;;;;;;;;;;;;;;;;;6228905;23;19912;-83
2023/01/16 10:24:17;;;;;;;;;;;;;;;;;;6226579;23;19911;-84
2023/01/16 10:26:43;;;;;;;;;;;;;;;;;;6228851;23;19915;-84
2023/01/16 10:29:09;;;;;;;;;;;;;;;;;;6226947;23;19927;-84
2023/01/16 10:31:35;;;;;;;;;;;;;;;;;;6234555;23;19903;-85
2023/01/16 10:34:01;;;;;;;;;;;;;;;;;;6238346;23;19912;-85
2023/01/16 10:36:28;;;;;;;;;;;;;;;;;;6237148;23;19915;-86
2023/01/16 10:38:55;;;;;;;;;;;;;;;;;;6237733;23;19924;-87
2023/01/16 10:49:38;;;;;;;;;;;;;;;;;;6202239;23;19994;-76
2023/01/16 10:52:04;;;;;;;;;;;;;;;;;;6213412;23;19936;-76
2023/01/16 10:54:30;;;;;;;;;;;;;;;;;;6207400;23;19912;-77
2023/01/16 10:56:58;;;;;;;;;;;;;;;;;;6207603;23;19912;-77
2023/01/16 10:59:24;;;;;;;;;;;;;;;;;;6180471;23;19926;-77
2023/01/16 11:01:49;;;;;;;;;;;;;;;;;;6207421;23;19912;-77
2023/01/16 11:04:15;;;;;;;;;;;;;;;;;;6205817;23;19918;-76
2023/01/16 11:06:41;;;;;;;;;;;;;;;;;;6208565;23;19918;-78
2023/01/16 11:09:08;;;;;;;;;;;;;;;;;;6207493;23;19912;-77
2023/01/16 11:19:46;;;;;;;;;;;;;;;;;;6211520;23;20371;-77
2023/01/16 11:22:12;;;;;;;;;;;;;;;;;;6207642;23;19919;-76
2023/01/16 11:24:38;;;;;;;;;;;;;;;;;;6210361;23;20432;-78
2023/01/16 11:27:04;;;;;;;;;;;;;;;;;;6210583;23;19926;-79
2023/01/16 11:29:31;;;;;;;;;;;;;;;;;;6208656;23;19912;-79
2023/01/16 11:31:57;;;;;;;;;;;;;;;;;;6210395;23;19925;-79
2023/01/16 11:34:25;;;;;;;;;;;;;;;;;;6209479;23;19919;-78
2023/01/16 11:36:51;;;;;;;;;;;;;;;;;;6210090;23;19995;-77
2023/01/16 11:39:17;;;;;;;;;;;;;;;;;;6207388;23;19954;-77
2023/01/16 11:41:43;;;;;;;;;;;;;;;;;;6210319;23;20351;-80
2023/01/16 11:46:53;;;;;;;;;;;;;;;;;;6210680;23;19916;-78
2023/01/16 11:49:19;;;;;;;;;;;;;;;;;;6212441;23;19919;-77
2023/01/16 11:51:44;;;;;;;;;;;;;;;;;;6210279;23;20513;-77
2023/01/16 11:54:10;;;;;;;;;;;;;;;;;;6211619;23;19912;-79
2023/01/16 11:56:36;;;;;;;;;;;;;;;;;;6211662;23;20011;-79
2023/01/16 11:59:06;;;;;;;;;;;;;;;;;;6211267;23;19966;-79
2023/01/16 12:02:15;;;;;;;;;;;;;;;;;;6210636;23;20388;-79
2023/01/16 12:04:17;;;;;;;;;;;;;;;;;;6210477;23;19966;-79
2023/01/16 12:06:43;;;;;;;;;;;;;;;;;;6211046;23;19920;-80
2023/01/16 12:09:09;;;;;;;;;;;;;;;;;;6210244;23;20414;-79
2023/01/16 12:11:34;;;;;;;;;;;;;;;;;;6210532;23;19950;-80
2023/01/16 12:14:20;;;;;;;;;;;;;;;;;;6210006;23;19924;-80
2023/01/16 12:16:45;;;;;;;;;;;;;;;;;;6212403;23;19912;-79
2023/01/16 12:19:11;;;;;;;;;;;;;;;;;;6211199;23;19943;-79
2023/01/16 12:21:37;;;;;;;;;;;;;;;;;;6210302;23;19916;-80
2023/01/16 12:24:02;;;;;;;;;;;;;;;;;;6233818;23;19908;-84
2023/01/16 12:26:28;;;;;;;;;;;;;;;;;;6238304;23;19935;-84
2023/01/16 12:28:54;;;;;;;;;;;;;;;;;;6236639;23;19911;-84
2023/01/16 12:31:35;;;;;;;;;;;;;;;;;;6236798;23;19919;-85
2023/01/16 12:34:01;;;;;;;;;;;;;;;;;;6237846;23;19936;-84
2023/01/16 12:36:26;;;;;;;;;;;;;;;;;;6233775;23;19919;-86
2023/01/16 12:38:52;;;;;;;;;;;;;;;;;;6234717;23;19920;-83
2023/01/16 12:44:02;;;;;;;;;;;;;;;;;;6234107;23;19912;-84
2023/01/16 12:46:27;;;;;;;;;;;;;;;;;;6233650;23;19976;-83
2023/01/16 12:48:53;;;;;;;;;;;;;;;;;;6230355;23;19918;-83
2023/01/16 12:51:18;;;;;;;;;;;;;;;;;;6225790;23;20366;-81
2023/01/16 12:53:44;;;;;;;;;;;;;;;;;;6225096;23;19908;-82
2023/01/16 12:56:10;;;;;;;;;;;;;;;;;;6231949;23;19911;-82
2023/01/16 12:58:35;;;;;;;;;;;;;;;;;;6228427;23;19912;-84
2023/01/16 13:01:01;;;;;;;;;;;;;;;;;;6229187;23;19912;-83
2023/01/16 13:03:27;;;;;;;;;;;;;;;;;;6227780;23;19912;-82
2023/01/16 13:05:52;;;;;;;;;;;;;;;;;;6230027;23;19927;-84
2023/01/16 13:08:19;;;;;;;;;;;;;;;;;;6235311;23;19927;-83
2023/01/16 13:13:29;;;;;;;;;;;;;;;;;;6230458;23;19932;-84
2023/01/16 13:15:54;;;;;;;;;;;;;;;;;;6226105;23;19912;-80
2023/01/16 13:18:20;;;;;;;;;;;;;;;;;;6231590;23;19912;-81
2023/01/16 13:20:46;;;;;;;;;;;;;;;;;;6232818;23;19922;-83
2023/01/16 13:23:11;;;;;;;;;;;;;;;;;;6235877;23;19912;-85
2023/01/16 13:25:37;;;;;;;;;;;;;;;;;;6236797;23;19927;-84
2023/01/16 13:28:03;;;;;;;;;;;;;;;;;;6212490;23;20485;-83
2023/01/16 13:30:28;;;;;;;;;;;;;;;;;;6233538;23;19912;-83
2023/01/16 13:32:54;;;;;;;;;;;;;;;;;;6230493;23;19912;-82
2023/01/16 13:35:20;;;;;;;;;;;;;;;;;;6227217;23;20360;-83
2023/01/16 13:37:46;;;;;;;;;;;;;;;;;;6230035;23;19911;-85
2023/01/16 13:40:12;;;;;;;;;;;;;;;;;;6232155;23;19924;-82
2023/01/16 13:42:37;;;;;;;;;;;;;;;;;;6230742;23;19896;-81
2023/01/16 13:47:52;;;;;;;;;;;;;;;;;;6197538;22;19908;-87
2023/01/16 13:50:17;;;;;;;;;;;;;;;;;;6170335;23;19915;-86
2023/01/16 13:52:43;;;;;;;;;;;;;;;;;;6188067;22;19943;-90
2023/01/16 13:55:19;;;;;;;;;;;;;;;;;;6162599;23;19952;-86
2023/01/16 13:57:44;;;;;;;;;;;;;;;;;;6225311;22;19951;-85
2023/01/16 14:00:10;;;;;;;;;;;;;;;;;;6228124;23;19920;-83
2023/01/16 14:02:36;;;;;;;;;;;;;;;;;;6195019;23;19919;-83
2023/01/16 14:05:02;;;;;;;;;;;;;;;;;;6225020;23;19956;-83
2023/01/16 14:10:12;;;;;;;;;;;;;;;;;;6205310;23;19896;-83
2023/01/16 14:12:38;;;;;;;;;;;;;;;;;;6222943;23;19975;-80
2023/01/16 14:17:48;;;;;;;;;;;;;;;;;;6207170;23;19919;-84
2023/01/16 14:20:13;;;;;;;;;;;;;;;;;;6207035;23;19947;-84
2023/01/16 14:25:07;;;;;;;;;;;;;;;;;;6215562;23;19912;-81
2023/01/16 14:27:32;;;;;;;;;;;;;;;;;;6157387;23;20428;-80
2023/01/16 14:29:59;;;;;;;;;;;;;;;;;;6218171;23;19912;-82
2023/01/16 14:32:24;;;;;;;;;;;;;;;;;;6213652;23;20026;-79
2023/01/16 14:34:50;;;;;;;;;;;;;;;;;;6215323;23;20341;-79
2023/01/16 14:37:16;;;;;;;;;;;;;;;;;;6190179;23;20007;-82
2023/01/16 14:39:41;;;;;;;;;;;;;;;;;;6233584;23;19932;-82
2023/01/16 14:55:49;;;;;;;;;;;;;;;;;;6228817;23;19934;-84
2023/01/16 14:58:15;;;;;;;;;;;;;;;;;;6235601;23;19920;-84
2023/01/16 15:00:41;;;;;;;;;;;;;;;;;;6233927;23;19960;-85
2023/01/16 15:03:07;;;;;;;;;;;;;;;;;;6237181;23;19934;-86
2023/01/16 15:05:49;;;;;;;;;;;;;;;;;;6238350;23;20229;-83
2023/01/16 15:08:15;;;;;;;;;;;;;;;;;;6240493;23;19923;-84
2023/01/16 15:10:42;;;;;;;;;;;;;;;;;;6207801;23;19931;-84
2023/01/16 15:13:08;;;;;;;;;;;;;;;;;;6209270;23;19932;-84
2023/01/16 15:15:34;;;;;;;;;;;;;;;;;;6236031;23;19911;-83
2023/01/16 15:23:28;;;;;;;;;;;;;;;;;;6237347;23;19935;-85
2023/01/16 15:25:53;;;;;;;;;;;;;;;;;;6236828;23;19932;-84
2023/01/16 15:28:19;;;;;;;;;;;;;;;;;;6209212;23;19927;-85
2023/01/16 15:30:50;;;;;;;;;;;;;;;;;;6235842;23;19919;-84
2023/01/16 15:36:00;;;;;;;;;;;;;;;;;;6188121;23;19919;-86
2023/01/16 15:38:26;;;;;;;;;;;;;;;;;;6189679;23;19928;-85
2023/01/16 15:40:51;;;;;;;;;;;;;;;;;;6241257;23;19951;-85
2023/01/16 15:49:06;;;;;;;;;;;;;;;;;;6174403;23;19912;-83
2023/01/16 15:51:32;;;;;;;;;;;;;;;;;;6173836;23;19923;-83
2023/01/16 15:53:59;;;;;;;;;;;;;;;;;;6202879;23;19947;-85
2023/01/16 15:56:24;;;;;;;;;;;;;;;;;;6212837;23;19904;-84
2023/01/16 15:58:51;;;;;;;;;;;;;;;;;;6237090;23;19927;-84
2023/01/16 16:01:17;;;;;;;;;;;;;;;;;;6211764;23;19952;-84
2023/01/16 16:03:43;;;;;;;;;;;;;;;;;;6238265;23;19892;-84
2023/01/16 16:06:09;;;;;;;;;;;;;;;;;;6212756;23;19916;-85
2023/01/16 16:08:34;;;;;;;;;;;;;;;;;;6239402;23;19950;-85
2023/01/16 16:13:44;;;;;;;;;;;;;;;;;;6237134;23;20453;-83
2023/01/16 16:18:55;;;;;;;;;;;;;;;;;;6237230;23;19942;-83
2023/01/16 16:21:21;;;;;;;;;;;;;;;;;;6237009;23;20388;-84
2023/01/16 16:23:46;;;;;;;;;;;;;;;;;;6214110;23;19912;-84
2023/01/16 16:26:14;;;;;;;;;;;;;;;;;;6214351;23;19919;-85
2023/01/16 16:28:40;;;;;;;;;;;;;;;;;;6215548;23;19920;-84
2023/01/16 16:31:06;;;;;;;;;;;;;;;;;;6236594;23;19966;-84
2023/01/16 16:33:33;;;;;;;;;;;;;;;;;;6218192;23;19912;-83
2023/01/16 16:35:58;;;;;;;;;;;;;;;;;;6200090;23;19912;-82
2023/01/16 16:38:25;;;;;;;;;;;;;;;;;;6224000;23;19924;-81
2023/01/16 16:40:51;;;;;;;;;;;;;;;;;;6205871;23;19912;-82
2023/01/16 16:43:17;;;;;;;;;;;;;;;;;;6201512;23;19922;-76
2023/01/16 16:45:42;;;;;;;;;;;;;;;;;;6238591;22;19907;-81
2023/01/16 16:48:08;;;;;;;;;;;;;;;;;;6235619;23;19923;-84
2023/01/16 16:50:34;;;;;;;;;;;;;;;;;;6178541;22;19946;-83
2023/01/16 17:01:05;;;;;;;;;;;;;;;;;;6259452;22;19924;-83
2023/01/16 17:11:57;;;;;;;;;;;;;;;;;;6233013;23;20333;-83
2023/01/16 17:31:16;;;;;;;;;;;;;;;;;;6254591;22;19924;-83
2023/01/16 17:33:45;;;;;;;;;;;;;;;;;;6223898;23;19919;-82
2023/01/16 17:36:11;;;;;;;;;;;;;;;;;;6254270;23;19919;-88
2023/01/16 17:38:36;;;;;;;;;;;;;;;;;;6264886;23;19915;-84
2023/01/16 17:41:06;;;;;;;;;;;;;;;;;;6240570;23;19918;-84
2023/01/16 17:46:16;;;;;;;;;;;;;;;;;;6267262;23;19915;-82
2023/01/16 17:48:45;;;;;;;;;;;;;;;;;;6256947;23;19911;-82
2023/01/16 17:51:10;;;;;;;;;;;;;;;;;;6229181;23;19928;-82
2023/01/16 17:53:36;;;;;;;;;;;;;;;;;;6249168;23;19911;-81
2023/01/16 17:56:05;;;;;;;;;;;;;;;;;;6232870;23;19912;-83
2023/01/16 18:01:12;;;;;;;;;;;;;;;;;;6268884;23;19927;-82
2023/01/16 18:03:38;;;;;;;;;;;;;;;;;;6262069;23;19967;-83
2023/01/16 18:06:03;;;;;;;;;;;;;;;;;;6208814;23;20021;-84
2023/01/16 18:08:29;;;;;;;;;;;;;;;;;;6240896;23;19899;-84
2023/01/16 18:10:55;;;;;;;;;;;;;;;;;;6235210;23;19999;-86
2023/01/16 18:18:50;;;;;;;;;;;;;;;;;;6251694;23;19923;-83
2023/01/16 18:24:00;;;;;;;;;;;;;;;;;;6259186;23;19911;-82
2023/01/16 18:26:29;;;;;;;;;;;;;;;;;;6229841;23;20375;-85
2023/01/16 18:28:54;;;;;;;;;;;;;;;;;;6252188;23;19973;-83
2023/01/16 18:31:20;;;;;;;;;;;;;;;;;;6222987;23;19967;-83
2023/01/16 18:33:51;;;;;;;;;;;;;;;;;;6257896;23;19915;-84
2023/01/16 18:36:16;;;;;;;;;;;;;;;;;;6246618;23;19916;-82
2023/01/16 19:03:25;;;;;;;;;;;;;;;;;;6258088;23;19911;-83
2023/01/16 19:05:54;;;;;;;;;;;;;;;;;;6231143;23;19911;-83
2023/01/16 19:08:23;;;;;;;;;;;;;;;;;;6226010;23;19911;-83
2023/01/16 19:10:49;;;;;;;;;;;;;;;;;;6249738;23;19911;-82
2023/01/16 19:13:14;;;;;;;;;;;;;;;;;;6226432;23;20336;-81
2023/01/16 19:18:29;;;;;;;;;;;;;;;;;;6229236;23;19912;-82
2023/01/16 19:20:55;;;;;;;;;;;;;;;;;;6232123;23;19918;-82
2023/01/16 19:23:20;;;;;;;;;;;;;;;;;;6261460;23;19918;-82
2023/01/16 19:25:48;;;;;;;;;;;;;;;;;;6236780;23;19965;-83
2023/01/16 19:28:14;;;;;;;;;;;;;;;;;;6245566;23;19912;-83
2023/01/16 19:30:40;;;;;;;;;;;;;;;;;;6215084;23;19930;-85
2023/01/16 19:33:05;;;;;;;;;;;;;;;;;;6272675;22;19902;-86
2023/01/16 19:35:31;;;;;;;;;;;;;;;;;;6273515;22;19907;-85
2023/01/16 19:37:59;;;;;;;;;;;;;;;;;;6235207;23;19922;-83
2023/01/16 19:40:25;;;;;;;;;;;;;;;;;;6258629;23;19919;-83
2023/01/16 19:48:19;;;;;;;;;;;;;;;;;;6232505;23;19984;-84
2023/01/16 19:50:45;;;;;;;;;;;;;;;;;;6261163;23;19911;-84
2023/01/16 19:53:10;;;;;;;;;;;;;;;;;;6258684;23;19915;-85
2023/01/16 19:55:37;;;;;;;;;;;;;;;;;;6266615;23;19911;-82
2023/01/16 19:58:02;;;;;;;;;;;;;;;;;;6270002;23;19914;-86
2023/01/16 20:00:28;;;;;;;;;;;;;;;;;;6266495;22;19923;-83
2023/01/16 20:02:54;;;;;;;;;;;;;;;;;;6268294;23;19920;-83
2023/01/16 20:05:20;;;;;;;;;;;;;;;;;;6265827;23;19922;-83
2023/01/16 20:07:47;;;;;;;;;;;;;;;;;;6260523;23;19927;-83
2023/01/16 20:10:13;;;;;;;;;;;;;;;;;;6234345;23;19912;-84
2023/01/16 20:12:39;;;;;;;;;;;;;;;;;;6218598;23;19896;-84
2023/01/16 20:17:47;;;;;;;;;;;;;;;;;;6237644;22;20091;-85
2023/01/16 20:20:13;;;;;;;;;;;;;;;;;;6235290;23;19923;-84
2023/01/16 20:22:41;;;;;;;;;;;;;;;;;;6249194;22;19978;-84
2023/01/16 20:25:10;;;;;;;;;;;;;;;;;;6217535;23;19912;-85